sensor_id;sensor_type;location;lat;lon;timestamp;pressure;altitude;pressure_sealevel;temperature;humidity
39295;BME280;52361;52.100;5.248;2023-04-10T00:01:14;102005.0;;;12.14;65.06
39295;BME280;52361;52.100;5.248;2023-04-10T00:02:51;102000.0;;;11.94;65.84
39295;BME280;52361;52.100;5.248;2023-04-10T00:06:03;101996.0;;;11.91;65.85
39295;BME280;52361;52.100;5.248;2023-04-10T00:07:40;101993.0;;;11.81;66.42
39295;BME280;52361;52.100;5.248;2023-04-10T00:09:17;101991.0;;;11.86;66.8
39295;BME280;52361;52.100;5.248;2023-04-10T00:12:29;101992.0;;;11.95;66.5
39295;BME280;52361;52.100;5.248;2023-04-10T00:14:06;101995.0;;;12.04;66.3
39295;BME280;52361;52.100;5.248;2023-04-10T00:15:43;101994.0;;;11.98;67.17
39295;BME280;52361;52.100;5.248;2023-04-10T00:17:19;101987.0;;;11.96;66.92
39295;BME280;52361;52.100;5.248;2023-04-10T00:20:32;101983.0;;;11.84;67.0
39295;BME280;52361;52.100;5.248;2023-04-10T00:22:10;101983.0;;;11.66;67.99
39295;BME280;52361;52.100;5.248;2023-04-10T00:23:46;101980.0;;;11.53;68.31
39295;BME280;52361;52.100;5.248;2023-04-10T00:26:58;101970.0;;;11.65;68.72
39295;BME280;52361;52.100;5.248;2023-04-10T00:28:34;101964.0;;;11.52;68.77
39295;BME280;52361;52.100;5.248;2023-04-10T00:30:11;101958.0;;;11.48;69.25
39295;BME280;52361;52.100;5.248;2023-04-10T00:33:24;101950.0;;;11.66;68.69
39295;BME280;52361;52.100;5.248;2023-04-10T00:35:00;101945.0;;;11.68;69.27
39295;BME280;52361;52.100;5.248;2023-04-10T00:36:37;101949.0;;;11.5;69.47
39295;BME280;52361;52.100;5.248;2023-04-10T00:38:13;101947.0;;;11.47;69.87
39295;BME280;52361;52.100;5.248;2023-04-10T00:41:25;101945.0;;;11.64;69.27
39295;BME280;52361;52.100;5.248;2023-04-10T00:43:01;101946.0;;;11.59;69.72
39295;BME280;52361;52.100;5.248;2023-04-10T00:44:37;101944.0;;;11.6;69.69
39295;BME280;52361;52.100;5.248;2023-04-10T00:47:50;101948.0;;;11.62;69.72
39295;BME280;52361;52.100;5.248;2023-04-10T00:49:26;101940.0;;;11.7;69.47
39295;BME280;52361;52.100;5.248;2023-04-10T00:51:03;101940.0;;;11.61;69.86
39295;BME280;52361;52.100;5.248;2023-04-10T00:54:17;101933.0;;;11.6;70.16
39295;BME280;52361;52.100;5.248;2023-04-10T00:55:53;101934.0;;;11.67;70.39
39295;BME280;52361;52.100;5.248;2023-04-10T00:57:30;101933.0;;;11.52;70.56
39295;BME280;52361;52.100;5.248;2023-04-10T01:02:22;101931.0;;;11.46;71.27
39295;BME280;52361;52.100;5.248;2023-04-10T01:03:58;101932.0;;;11.5;71.31
39295;BME280;52361;52.100;5.248;2023-04-10T01:05:38;101930.0;;;11.39;72.16
39295;BME280;52361;52.100;5.248;2023-04-10T01:09:09;101930.0;;;11.48;71.78
39295;BME280;52361;52.100;5.248;2023-04-10T01:10:57;101924.0;;;11.41;71.63
39295;BME280;52361;52.100;5.248;2023-04-10T01:12:50;101927.0;;;11.4;71.99
39295;BME280;52361;52.100;5.248;2023-04-10T01:14:37;101931.0;;;11.44;72.24
39295;BME280;52361;52.100;5.248;2023-04-10T01:16:23;101930.0;;;11.42;72.02
39295;BME280;52361;52.100;5.248;2023-04-10T01:18:03;101922.0;;;11.32;72.22
39295;BME280;52361;52.100;5.248;2023-04-10T01:21:45;101912.0;;;11.42;72.33
39295;BME280;52361;52.100;5.248;2023-04-10T01:23:40;101910.0;;;11.46;72.3
39295;BME280;52361;52.100;5.248;2023-04-10T01:25:55;101912.0;;;11.29;72.99
39295;BME280;52361;52.100;5.248;2023-04-10T01:27:39;101907.0;;;11.46;72.58
39295;BME280;52361;52.100;5.248;2023-04-10T01:29:19;101905.0;;;11.25;72.87
39295;BME280;52361;52.100;5.248;2023-04-10T01:30:59;101905.0;;;11.38;73.2
39295;BME280;52361;52.100;5.248;2023-04-10T01:32:38;101901.0;;;11.35;72.83
39295;BME280;52361;52.100;5.248;2023-04-10T01:36:00;101900.0;;;11.48;72.72
39295;BME280;52361;52.100;5.248;2023-04-10T01:37:41;101893.0;;;11.29;73.16
39295;BME280;52361;52.100;5.248;2023-04-10T01:39:20;101891.0;;;11.38;73.64
39295;BME280;52361;52.100;5.248;2023-04-10T01:40:58;101887.0;;;11.41;73.34
39295;BME280;52361;52.100;5.248;2023-04-10T01:44:20;101884.0;;;11.4;73.06
39295;BME280;52361;52.100;5.248;2023-04-10T01:46:00;101882.0;;;11.33;73.19
39295;BME280;52361;52.100;5.248;2023-04-10T01:47:37;101882.0;;;11.22;73.83
39295;BME280;52361;52.100;5.248;2023-04-10T01:50:53;101880.0;;;11.4;73.78
39295;BME280;52361;52.100;5.248;2023-04-10T01:52:31;101884.0;;;11.22;73.99
39295;BME280;52361;52.100;5.248;2023-04-10T01:54:09;101885.0;;;11.32;73.56
39295;BME280;52361;52.100;5.248;2023-04-10T01:55:45;101882.0;;;11.31;73.95
39295;BME280;52361;52.100;5.248;2023-04-10T01:59:00;101878.0;;;11.23;74.09
39295;BME280;52361;52.100;5.248;2023-04-10T02:00:37;101880.0;;;11.26;74.58
39295;BME280;52361;52.100;5.248;2023-04-10T02:02:14;101874.0;;;11.27;74.33
39295;BME280;52361;52.100;5.248;2023-04-10T02:05:30;101877.0;;;11.25;74.64
39295;BME280;52361;52.100;5.248;2023-04-10T02:07:24;101873.0;;;11.26;74.78
39295;BME280;52361;52.100;5.248;2023-04-10T02:09:15;101874.0;;;11.12;74.55
39295;BME280;52361;52.100;5.248;2023-04-10T02:11:01;101871.0;;;11.28;73.8
39295;BME280;52361;52.100;5.248;2023-04-10T02:12:48;101880.0;;;11.13;74.81
39295;BME280;52361;52.100;5.248;2023-04-10T02:14:26;101874.0;;;11.28;74.47
39295;BME280;52361;52.100;5.248;2023-04-10T02:17:43;101870.0;;;11.33;73.88
39295;BME280;52361;52.100;5.248;2023-04-10T02:19:19;101871.0;;;11.36;73.77
39295;BME280;52361;52.100;5.248;2023-04-10T02:20:58;101868.0;;;11.2;74.3
39295;BME280;52361;52.100;5.248;2023-04-10T02:24:11;101868.0;;;11.28;74.42
39295;BME280;52361;52.100;5.248;2023-04-10T02:25:48;101870.0;;;11.35;74.02
39295;BME280;52361;52.100;5.248;2023-04-10T02:27:28;101867.0;;;11.25;74.2
39295;BME280;52361;52.100;5.248;2023-04-10T02:29:05;101864.0;;;11.32;74.36
39295;BME280;52361;52.100;5.248;2023-04-10T02:32:17;101861.0;;;11.11;74.61
39295;BME280;52361;52.100;5.248;2023-04-10T02:33:53;101866.0;;;11.12;75.02
39295;BME280;52361;52.100;5.248;2023-04-10T02:35:29;101867.0;;;11.04;75.34
39295;BME280;52361;52.100;5.248;2023-04-10T02:38:42;101863.0;;;10.94;75.83
39295;BME280;52361;52.100;5.248;2023-04-10T02:40:18;101861.0;;;11.12;75.24
39295;BME280;52361;52.100;5.248;2023-04-10T02:41:54;101872.0;;;11.06;75.27
39295;BME280;52361;52.100;5.248;2023-04-10T02:45:07;101865.0;;;10.99;75.36
39295;BME280;52361;52.100;5.248;2023-04-10T02:46:43;101869.0;;;11.12;75.08
39295;BME280;52361;52.100;5.248;2023-04-10T02:48:19;101868.0;;;11.11;74.97
39295;BME280;52361;52.100;5.248;2023-04-10T02:51:33;101869.0;;;11.01;76.02
39295;BME280;52361;52.100;5.248;2023-04-10T02:54:45;101867.0;;;11.02;75.64
39295;BME280;52361;52.100;5.248;2023-04-10T02:56:21;101873.0;;;11.05;76.08
39295;BME280;52361;52.100;5.248;2023-04-10T02:59:33;101869.0;;;11.14;75.98
39295;BME280;52361;52.100;5.248;2023-04-10T03:01:10;101874.0;;;11.01;75.97
39295;BME280;52361;52.100;5.248;2023-04-10T03:02:46;101871.0;;;11.13;75.36
39295;BME280;52361;52.100;5.248;2023-04-10T03:05:58;101876.0;;;10.89;75.95
39295;BME280;52361;52.100;5.248;2023-04-10T03:07:34;101873.0;;;11.04;76.05
39295;BME280;52361;52.100;5.248;2023-04-10T03:09:10;101876.0;;;11.05;75.97
39295;BME280;52361;52.100;5.248;2023-04-10T03:12:23;101874.0;;;10.99;76.03
39295;BME280;52361;52.100;5.248;2023-04-10T03:13:59;101874.0;;;11.13;75.69
39295;BME280;52361;52.100;5.248;2023-04-10T03:15:35;101877.0;;;11.06;75.83
39295;BME280;52361;52.100;5.248;2023-04-10T03:17:11;101873.0;;;10.88;76.44
39295;BME280;52361;52.100;5.248;2023-04-10T03:20:23;101870.0;;;10.86;76.47
39295;BME280;52361;52.100;5.248;2023-04-10T03:21:59;101870.0;;;10.89;76.5
39295;BME280;52361;52.100;5.248;2023-04-10T03:23:35;101868.0;;;10.71;76.91
39295;BME280;52361;52.100;5.248;2023-04-10T03:26:48;101860.0;;;10.95;76.47
39295;BME280;52361;52.100;5.248;2023-04-10T03:28:24;101861.0;;;10.88;76.44
39295;BME280;52361;52.100;5.248;2023-04-10T03:30:00;101863.0;;;10.82;76.72
39295;BME280;52361;52.100;5.248;2023-04-10T03:33:13;101859.0;;;10.83;77.19
39295;BME280;52361;52.100;5.248;2023-04-10T03:34:49;101858.0;;;10.62;78.03
39295;BME280;52361;52.100;5.248;2023-04-10T03:36:25;101855.0;;;10.8;77.27
39295;BME280;52361;52.100;5.248;2023-04-10T03:39:37;101855.0;;;10.81;76.8
39295;BME280;52361;52.100;5.248;2023-04-10T03:41:13;101851.0;;;10.93;76.5
39295;BME280;52361;52.100;5.248;2023-04-10T03:42:49;101852.0;;;10.81;76.75
39295;BME280;52361;52.100;5.248;2023-04-10T03:44:25;101850.0;;;10.82;77.09
39295;BME280;52361;52.100;5.248;2023-04-10T03:47:38;101847.0;;;10.85;77.14
39295;BME280;52361;52.100;5.248;2023-04-10T03:49:14;101850.0;;;10.91;76.75
39295;BME280;52361;52.100;5.248;2023-04-10T03:50:50;101842.0;;;10.74;77.14
39295;BME280;52361;52.100;5.248;2023-04-10T03:54:02;101837.0;;;10.57;77.49
39295;BME280;52361;52.100;5.248;2023-04-10T03:55:38;101835.0;;;10.69;77.16
39295;BME280;52361;52.100;5.248;2023-04-10T03:57:14;101832.0;;;10.48;78.06
39295;BME280;52361;52.100;5.248;2023-04-10T04:00:29;101827.0;;;10.56;77.91
39295;BME280;52361;52.100;5.248;2023-04-10T04:02:07;101823.0;;;10.58;77.84
39295;BME280;52361;52.100;5.248;2023-04-10T04:05:19;101814.0;;;10.52;77.47
39295;BME280;52361;52.100;5.248;2023-04-10T04:08:31;101814.0;;;10.7;77.22
39295;BME280;52361;52.100;5.248;2023-04-10T04:10:08;101814.0;;;10.5;77.99
39295;BME280;52361;52.100;5.248;2023-04-10T04:11:43;101813.0;;;10.57;77.83
39295;BME280;52361;52.100;5.248;2023-04-10T04:14:56;101806.0;;;10.44;77.91
39295;BME280;52361;52.100;5.248;2023-04-10T04:16:32;101810.0;;;10.7;77.37
39295;BME280;52361;52.100;5.248;2023-04-10T04:18:08;101809.0;;;10.58;77.38
39295;BME280;52361;52.100;5.248;2023-04-10T04:21:20;101808.0;;;10.6;78.09
39295;BME280;52361;52.100;5.248;2023-04-10T04:22:57;101811.0;;;10.47;78.13
39295;BME280;52361;52.100;5.248;2023-04-10T04:24:33;101810.0;;;10.48;78.3
39295;BME280;52361;52.100;5.248;2023-04-10T04:27:46;101807.0;;;10.44;78.36
39295;BME280;52361;52.100;5.248;2023-04-10T04:29:22;101809.0;;;10.5;78.3
39295;BME280;52361;52.100;5.248;2023-04-10T04:30:58;101806.0;;;10.43;78.78
39295;BME280;52361;52.100;5.248;2023-04-10T04:32:34;101805.0;;;10.57;78.22
39295;BME280;52361;52.100;5.248;2023-04-10T04:35:48;101800.0;;;10.31;78.69
39295;BME280;52361;52.100;5.248;2023-04-10T04:37:24;101805.0;;;10.24;79.52
39295;BME280;52361;52.100;5.248;2023-04-10T04:39:00;101803.0;;;10.11;79.84
39295;BME280;52361;52.100;5.248;2023-04-10T04:42:13;101798.0;;;10.09;80.27
39295;BME280;52361;52.100;5.248;2023-04-10T04:43:49;101799.0;;;10.16;79.73
39295;BME280;52361;52.100;5.248;2023-04-10T04:45:25;101793.0;;;10.19;80.19
39295;BME280;52361;52.100;5.248;2023-04-10T04:48:37;101797.0;;;10.14;80.44
39295;BME280;52361;52.100;5.248;2023-04-10T04:50:13;101790.0;;;10.23;79.91
39295;BME280;52361;52.100;5.248;2023-04-10T04:51:49;101794.0;;;10.27;80.19
39295;BME280;52361;52.100;5.248;2023-04-10T04:53:25;101794.0;;;10.36;79.41
39295;BME280;52361;52.100;5.248;2023-04-10T04:56:38;101791.0;;;10.31;79.27
39295;BME280;52361;52.100;5.248;2023-04-10T04:58:14;101789.0;;;10.23;79.69
39295;BME280;52361;52.100;5.248;2023-04-10T04:59:50;101792.0;;;9.91;81.2
39295;BME280;52361;52.100;5.248;2023-04-10T05:03:02;101793.0;;;10.09;80.87
39295;BME280;52361;52.100;5.248;2023-04-10T05:04:38;101789.0;;;9.84;81.67
39295;BME280;52361;52.100;5.248;2023-04-10T05:06:15;101785.0;;;10.18;80.64
39295;BME280;52361;52.100;5.248;2023-04-10T05:09:27;101786.0;;;10.07;80.44
39295;BME280;52361;52.100;5.248;2023-04-10T05:11:03;101782.0;;;10.03;80.83
39295;BME280;52361;52.100;5.248;2023-04-10T05:12:39;101780.0;;;10.02;80.74
39295;BME280;52361;52.100;5.248;2023-04-10T05:15:51;101786.0;;;10.06;80.66
39295;BME280;52361;52.100;5.248;2023-04-10T05:17:27;101791.0;;;10.19;80.23
39295;BME280;52361;52.100;5.248;2023-04-10T05:19:03;101791.0;;;10.03;80.39
39295;BME280;52361;52.100;5.248;2023-04-10T05:20:39;101791.0;;;10.28;79.47
39295;BME280;52361;52.100;5.248;2023-04-10T05:23:52;101788.0;;;10.29;79.23
39295;BME280;52361;52.100;5.248;2023-04-10T05:25:28;101785.0;;;10.07;79.31
39295;BME280;52361;52.100;5.248;2023-04-10T05:27:04;101777.0;;;10.19;79.36
39295;BME280;52361;52.100;5.248;2023-04-10T05:30:16;101769.0;;;10.14;79.23
39295;BME280;52361;52.100;5.248;2023-04-10T05:31:52;101773.0;;;10.06;79.23
39295;BME280;52361;52.100;5.248;2023-04-10T05:33:28;101774.0;;;10.14;79.33
39295;BME280;52361;52.100;5.248;2023-04-10T05:36:42;101778.0;;;10.06;79.58
39295;BME280;52361;52.100;5.248;2023-04-10T05:38:19;101776.0;;;10.23;78.63
39295;BME280;52361;52.100;5.248;2023-04-10T05:46:14;101769.0;;;10.35;77.19
39295;BME280;52361;52.100;5.248;2023-04-10T05:47:52;101777.0;;;10.47;77.41
39295;BME280;52361;52.100;5.248;2023-04-10T05:51:05;101771.0;;;10.45;76.22
39295;BME280;52361;52.100;5.248;2023-04-10T05:52:42;101776.0;;;10.4;76.36
39295;BME280;52361;52.100;5.248;2023-04-10T05:54:18;101769.0;;;10.61;75.16
39295;BME280;52361;52.100;5.248;2023-04-10T05:57:30;101773.0;;;10.69;75.2
39295;BME280;52361;52.100;5.248;2023-04-10T05:59:06;101773.0;;;10.4;75.28
39295;BME280;52361;52.100;5.248;2023-04-10T06:00:42;101770.0;;;10.59;75.66
39295;BME280;52361;52.100;5.248;2023-04-10T06:03:54;101770.0;;;10.43;75.66
39295;BME280;52361;52.100;5.248;2023-04-10T06:05:30;101763.0;;;10.65;74.88
39295;BME280;52361;52.100;5.248;2023-04-10T06:07:07;101765.0;;;10.67;75.05
39295;BME280;52361;52.100;5.248;2023-04-10T06:08:43;101764.0;;;10.76;74.16
39295;BME280;52361;52.100;5.248;2023-04-10T06:11:55;101755.0;;;10.89;73.66
39295;BME280;52361;52.100;5.248;2023-04-10T06:13:31;101749.0;;;10.68;73.41
39295;BME280;52361;52.100;5.248;2023-04-10T06:15:08;101748.0;;;10.8;73.94
39295;BME280;52361;52.100;5.248;2023-04-10T06:18:20;101742.0;;;10.64;73.56
39295;BME280;52361;52.100;5.248;2023-04-10T06:19:56;101742.0;;;10.81;73.05
39295;BME280;52361;52.100;5.248;2023-04-10T06:21:32;101736.0;;;10.87;72.83
39295;BME280;52361;52.100;5.248;2023-04-10T06:24:44;101737.0;;;10.99;72.58
39295;BME280;52361;52.100;5.248;2023-04-10T06:26:20;101740.0;;;10.82;72.22
39295;BME280;52361;52.100;5.248;2023-04-10T06:27:56;101733.0;;;10.83;72.77
39295;BME280;52361;52.100;5.248;2023-04-10T06:31:09;101724.0;;;11.01;72.66
39295;BME280;52361;52.100;5.248;2023-04-10T06:32:45;101725.0;;;10.8;72.41
39295;BME280;52361;52.100;5.248;2023-04-10T06:34:21;101718.0;;;10.94;72.66
39295;BME280;52361;52.100;5.248;2023-04-10T06:35:57;101717.0;;;11.1;72.16
39295;BME280;52361;52.100;5.248;2023-04-10T06:39:09;101719.0;;;11.12;71.87
39295;BME280;52361;52.100;5.248;2023-04-10T06:40:45;101710.0;;;11.2;71.33
39295;BME280;52361;52.100;5.248;2023-04-10T06:42:21;101709.0;;;11.06;71.95
39295;BME280;52361;52.100;5.248;2023-04-10T06:45:34;101706.0;;;10.98;72.02
39295;BME280;52361;52.100;5.248;2023-04-10T06:47:10;101702.0;;;11.26;72.06
39295;BME280;52361;52.100;5.248;2023-04-10T06:48:46;101695.0;;;11.13;71.08
39295;BME280;52361;52.100;5.248;2023-04-10T06:51:58;101696.0;;;11.05;71.24
39295;BME280;52361;52.100;5.248;2023-04-10T06:55:10;101685.0;;;10.86;72.3
39295;BME280;52361;52.100;5.248;2023-04-10T06:58:23;101686.0;;;10.92;72.63
39295;BME280;52361;52.100;5.248;2023-04-10T06:59:59;101680.0;;;11.01;72.77
39295;BME280;52361;52.100;5.248;2023-04-10T07:01:35;101678.0;;;11.04;71.61
39295;BME280;52361;52.100;5.248;2023-04-10T07:03:11;101675.0;;;11.24;71.83
39295;BME280;52361;52.100;5.248;2023-04-10T07:06:23;101675.0;;;11.19;71.13
39295;BME280;52361;52.100;5.248;2023-04-10T07:07:59;101670.0;;;11.31;71.97
39295;BME280;52361;52.100;5.248;2023-04-10T07:09:35;101662.0;;;11.51;71.16
39295;BME280;52361;52.100;5.248;2023-04-10T07:12:49;101662.0;;;11.62;70.11
39295;BME280;52361;52.100;5.248;2023-04-10T07:14:25;101658.0;;;11.73;69.49
39295;BME280;52361;52.100;5.248;2023-04-10T07:16:01;101658.0;;;11.77;68.61
39295;BME280;52361;52.100;5.248;2023-04-10T07:19:13;101656.0;;;11.91;68.97
39295;BME280;52361;52.100;5.248;2023-04-10T07:20:50;101647.0;;;11.88;69.11
39295;BME280;52361;52.100;5.248;2023-04-10T07:22:25;101646.0;;;11.97;67.45
39295;BME280;52361;52.100;5.248;2023-04-10T07:24:01;101641.0;;;11.96;67.52
39295;BME280;52361;52.100;5.248;2023-04-10T07:28:52;101639.0;;;12.15;66.48
39295;BME280;52361;52.100;5.248;2023-04-10T07:30:28;101637.0;;;12.3;66.19
39295;BME280;52361;52.100;5.248;2023-04-10T07:33:40;101630.0;;;12.26;65.8
39295;BME280;52361;52.100;5.248;2023-04-10T07:35:17;101626.0;;;12.31;65.33
39295;BME280;52361;52.100;5.248;2023-04-10T07:36:52;101626.0;;;12.53;65.08
39295;BME280;52361;52.100;5.248;2023-04-10T07:40:06;101624.0;;;12.77;64.19
39295;BME280;52361;52.100;5.248;2023-04-10T07:41:43;101627.0;;;12.82;63.45
39295;BME280;52361;52.100;5.248;2023-04-10T07:43:19;101628.0;;;12.88;63.09
39295;BME280;52361;52.100;5.248;2023-04-10T07:46:31;101621.0;;;12.88;62.3
39295;BME280;52361;52.100;5.248;2023-04-10T07:48:07;101619.0;;;12.87;62.87
39295;BME280;52361;52.100;5.248;2023-04-10T07:49:43;101611.0;;;13.16;61.39
39295;BME280;52361;52.100;5.248;2023-04-10T07:51:20;101606.0;;;13.18;60.88
39295;BME280;52361;52.100;5.248;2023-04-10T07:54:32;101601.0;;;13.49;60.97
39295;BME280;52361;52.100;5.248;2023-04-10T07:56:14;101603.0;;;13.27;60.43
39295;BME280;52361;52.100;5.248;2023-04-10T07:57:50;101596.0;;;13.15;60.51
39295;BME280;52361;52.100;5.248;2023-04-10T08:01:03;101605.0;;;13.34;60.42
39295;BME280;52361;52.100;5.248;2023-04-10T08:02:39;101594.0;;;13.43;60.59
39295;BME280;52361;52.100;5.248;2023-04-10T08:04:15;101596.0;;;13.45;60.78
39295;BME280;52361;52.100;5.248;2023-04-10T08:09:03;101599.0;;;13.54;60.16
39295;BME280;52361;52.100;5.248;2023-04-10T08:10:39;101598.0;;;13.49;59.82
39295;BME280;52361;52.100;5.248;2023-04-10T08:12:16;101597.0;;;13.48;59.87
39295;BME280;52361;52.100;5.248;2023-04-10T08:15:34;101588.0;;;13.58;60.12
39295;BME280;52361;52.100;5.248;2023-04-10T08:17:12;101586.0;;;13.51;60.69
39295;BME280;52361;52.100;5.248;2023-04-10T08:18:49;101586.0;;;13.7;60.35
39295;BME280;52361;52.100;5.248;2023-04-10T08:22:04;101585.0;;;13.78;59.8
39295;BME280;52361;52.100;5.248;2023-04-10T08:23:41;101583.0;;;13.71;59.01
39295;BME280;52361;52.100;5.248;2023-04-10T08:25:18;101580.0;;;13.73;59.77
39295;BME280;52361;52.100;5.248;2023-04-10T08:26:56;101577.0;;;13.9;60.17
39295;BME280;52361;52.100;5.248;2023-04-10T08:30:10;101572.0;;;14.07;59.56
39295;BME280;52361;52.100;5.248;2023-04-10T08:31:48;101570.0;;;14.14;58.31
39295;BME280;52361;52.100;5.248;2023-04-10T08:33:25;101562.0;;;14.07;58.55
39295;BME280;52361;52.100;5.248;2023-04-10T08:36:41;101561.0;;;14.14;59.6
39295;BME280;52361;52.100;5.248;2023-04-10T08:38:17;101559.0;;;14.11;59.69
39295;BME280;52361;52.100;5.248;2023-04-10T08:39:54;101549.0;;;14.05;58.72
39295;BME280;52361;52.100;5.248;2023-04-10T08:41:32;101548.0;;;14.08;58.9
39295;BME280;52361;52.100;5.248;2023-04-10T08:44:47;101547.0;;;13.92;60.1
39295;BME280;52361;52.100;5.248;2023-04-10T08:46:26;101545.0;;;13.93;60.28
39295;BME280;52361;52.100;5.248;2023-04-10T08:48:06;101542.0;;;13.96;59.96
39295;BME280;52361;52.100;5.248;2023-04-10T08:51:36;101544.0;;;13.9;61.06
39295;BME280;52361;52.100;5.248;2023-04-10T08:53:16;101544.0;;;13.93;60.45
39295;BME280;52361;52.100;5.248;2023-04-10T08:54:58;101545.0;;;13.93;60.24
39295;BME280;52361;52.100;5.248;2023-04-10T08:56:38;101542.0;;;14.02;60.42
39295;BME280;52361;52.100;5.248;2023-04-10T08:58:19;101546.0;;;13.85;61.55
39295;BME280;52361;52.100;5.248;2023-04-10T09:01:35;101538.0;;;13.98;61.17
39295;BME280;52361;52.100;5.248;2023-04-10T09:03:14;101541.0;;;14.01;60.97
39295;BME280;52361;52.100;5.248;2023-04-10T09:04:53;101535.0;;;13.82;60.31
39295;BME280;52361;52.100;5.248;2023-04-10T09:08:09;101536.0;;;13.98;60.47
39295;BME280;52361;52.100;5.248;2023-04-10T09:09:47;101533.0;;;13.77;61.0
39295;BME280;52361;52.100;5.248;2023-04-10T09:11:54;101526.0;;;13.62;61.64
39295;BME280;52361;52.100;5.248;2023-04-10T09:13:34;101523.0;;;13.88;62.28
39295;BME280;52361;52.100;5.248;2023-04-10T09:15:13;101514.0;;;13.91;61.44
39295;BME280;52361;52.100;5.248;2023-04-10T09:18:47;101517.0;;;13.83;60.82
39295;BME280;52361;52.100;5.248;2023-04-10T09:20:29;101511.0;;;13.89;61.11
39295;BME280;52361;52.100;5.248;2023-04-10T09:22:06;101511.0;;;13.63;61.31
39295;BME280;52361;52.100;5.248;2023-04-10T09:23:47;101503.0;;;13.56;61.92
39295;BME280;52361;52.100;5.248;2023-04-10T09:25:29;101497.0;;;13.64;61.78
39295;BME280;52361;52.100;5.248;2023-04-10T09:28:55;101498.0;;;13.81;61.73
39295;BME280;52361;52.100;5.248;2023-04-10T09:30:36;101492.0;;;13.86;61.62
39295;BME280;52361;52.100;5.248;2023-04-10T09:32:35;101493.0;;;14.02;62.15
39295;BME280;52361;52.100;5.248;2023-04-10T09:34:13;101490.0;;;14.02;61.13
39295;BME280;52361;52.100;5.248;2023-04-10T09:35:56;101485.0;;;14.2;60.43
39295;BME280;52361;52.100;5.248;2023-04-10T09:40:51;101476.0;;;14.24;60.65
39295;BME280;52361;52.100;5.248;2023-04-10T09:42:30;101467.0;;;14.32;60.25
39295;BME280;52361;52.100;5.248;2023-04-10T09:45:48;101463.0;;;14.12;60.27
39295;BME280;52361;52.100;5.248;2023-04-10T09:47:27;101460.0;;;14.25;60.92
39295;BME280;52361;52.100;5.248;2023-04-10T09:49:04;101456.0;;;14.28;60.15
39295;BME280;52361;52.100;5.248;2023-04-10T09:50:43;101455.0;;;14.18;60.47
39295;BME280;52361;52.100;5.248;2023-04-10T09:54:00;101458.0;;;14.42;59.69
39295;BME280;52361;52.100;5.248;2023-04-10T09:55:40;101446.0;;;14.63;59.15
39295;BME280;52361;52.100;5.248;2023-04-10T09:57:19;101451.0;;;14.73;58.52
39295;BME280;52361;52.100;5.248;2023-04-10T09:59:00;101450.0;;;14.58;58.66
39295;BME280;52361;52.100;5.248;2023-04-10T10:02:18;101446.0;;;14.69;59.03
39295;BME280;52361;52.100;5.248;2023-04-10T10:03:59;101444.0;;;14.5;58.93
39295;BME280;52361;52.100;5.248;2023-04-10T10:05:39;101442.0;;;14.7;59.58
39295;BME280;52361;52.100;5.248;2023-04-10T10:07:18;101433.0;;;14.77;58.48
39295;BME280;52361;52.100;5.248;2023-04-10T10:10:42;101435.0;;;14.83;58.23
39295;BME280;52361;52.100;5.248;2023-04-10T10:12:25;101434.0;;;15.01;58.65
39295;BME280;52361;52.100;5.248;2023-04-10T10:14:11;101431.0;;;15.02;57.68
39295;BME280;52361;52.100;5.248;2023-04-10T10:15:56;101430.0;;;15.11;58.28
39295;BME280;52361;52.100;5.248;2023-04-10T10:19:26;101430.0;;;15.21;58.35
39295;BME280;52361;52.100;5.248;2023-04-10T10:21:07;101423.0;;;15.05;57.19
39295;BME280;52361;52.100;5.248;2023-04-10T10:22:45;101421.0;;;15.31;57.67
39295;BME280;52361;52.100;5.248;2023-04-10T10:24:22;101413.0;;;15.21;56.69
39295;BME280;52361;52.100;5.248;2023-04-10T10:27:41;101401.0;;;15.25;57.29
39295;BME280;52361;52.100;5.248;2023-04-10T10:29:19;101407.0;;;15.36;57.33
39295;BME280;52361;52.100;5.248;2023-04-10T10:31:01;101398.0;;;15.29;57.18
39295;BME280;52361;52.100;5.248;2023-04-10T10:32:40;101393.0;;;15.31;57.87
39295;BME280;52361;52.100;5.248;2023-04-10T10:35:57;101386.0;;;15.22;57.61
39295;BME280;52361;52.100;5.248;2023-04-10T10:37:36;101389.0;;;15.37;57.99
39295;BME280;52361;52.100;5.248;2023-04-10T10:39:23;101391.0;;;15.68;56.51
39295;BME280;52361;52.100;5.248;2023-04-10T10:41:11;101380.0;;;15.7;56.77
39295;BME280;52361;52.100;5.248;2023-04-10T10:42:56;101387.0;;;15.83;56.96
39295;BME280;52361;52.100;5.248;2023-04-10T10:46:28;101383.0;;;15.76;56.68
39295;BME280;52361;52.100;5.248;2023-04-10T10:48:13;101373.0;;;15.99;56.92
39295;BME280;52361;52.100;5.248;2023-04-10T10:49:52;101370.0;;;15.94;56.71
39295;BME280;52361;52.100;5.248;2023-04-10T10:51:47;101364.0;;;16.05;56.59
39295;BME280;52361;52.100;5.248;2023-04-10T10:53:31;101361.0;;;16.46;57.1
39295;BME280;52361;52.100;5.248;2023-04-10T10:57:45;101355.0;;;16.55;56.08
39295;BME280;52361;52.100;5.248;2023-04-10T10:59:55;101358.0;;;16.68;55.66
39295;BME280;52361;52.100;5.248;2023-04-10T11:01:32;101351.0;;;16.79;55.33
39295;BME280;52361;52.100;5.248;2023-04-10T11:03:26;101343.0;;;17.0;54.39
39295;BME280;52361;52.100;5.248;2023-04-10T11:05:05;101334.0;;;16.68;54.25
39295;BME280;52361;52.100;5.248;2023-04-10T11:06:50;101338.0;;;16.87;55.51
39295;BME280;52361;52.100;5.248;2023-04-10T11:08:39;101333.0;;;16.82;54.79
39295;BME280;52361;52.100;5.248;2023-04-10T11:10:57;101323.0;;;16.72;55.96
39295;BME280;52361;52.100;5.248;2023-04-10T11:13:13;101327.0;;;16.86;55.24
39295;BME280;52361;52.100;5.248;2023-04-10T11:16:42;101314.0;;;16.81;54.79
39295;BME280;52361;52.100;5.248;2023-04-10T11:19:57;101320.0;;;16.62;56.07
39295;BME280;52361;52.100;5.248;2023-04-10T11:21:35;101306.0;;;16.64;55.16
39295;BME280;52361;52.100;5.248;2023-04-10T11:23:13;101307.0;;;16.87;55.33
39295;BME280;52361;52.100;5.248;2023-04-10T11:24:52;101302.0;;;17.0;55.1
39295;BME280;52361;52.100;5.248;2023-04-10T11:28:48;101299.0;;;16.97;53.99
39295;BME280;52361;52.100;5.248;2023-04-10T11:30:29;101298.0;;;17.11;55.67